createdAt,value
2018-04-06T00:02:17.666Z,53.48
2018-04-06T00:04:45.426Z,53.35
2018-04-06T00:07:13.150Z,53.09
2018-04-06T00:09:40.851Z,52.87
2018-04-06T00:12:08.616Z,52.33
2018-04-06T00:14:36.384Z,52.62
2018-04-06T00:17:04.213Z,52.59
2018-04-06T00:19:31.913Z,52.68
2018-04-06T00:21:59.573Z,52.73
2018-04-06T00:24:27.288Z,52.77
2018-04-06T00:26:55.104Z,52.75
2018-04-06T00:29:22.866Z,53.02
2018-04-06T00:31:50.733Z,53.03
2018-04-06T00:34:18.454Z,52.94
2018-04-06T00:36:46.261Z,52.88
2018-04-06T00:39:14.035Z,52.91
2018-04-06T00:41:41.891Z,52.97
2018-04-06T00:44:09.658Z,53.23
2018-04-06T00:46:37.420Z,53.20
2018-04-06T00:49:05.087Z,53.60
2018-04-06T00:51:32.847Z,53.58
2018-04-06T00:54:00.618Z,53.45
2018-04-06T00:56:28.527Z,53.13
2018-04-06T00:58:56.243Z,53.34
2018-04-06T01:01:23.964Z,53.31
2018-04-06T01:03:51.776Z,53.28
2018-04-06T01:06:19.536Z,53.31
2018-04-06T01:08:47.257Z,52.92
2018-04-06T01:11:15.183Z,52.71
2018-04-06T01:13:42.891Z,52.95
2018-04-06T01:16:10.698Z,53.60
2018-04-06T01:18:38.462Z,53.77
2018-04-06T01:21:06.514Z,53.93
2018-04-06T01:23:34.254Z,53.97
2018-04-06T01:26:02.063Z,53.92
2018-04-06T01:28:29.725Z,53.42
2018-04-06T01:30:57.489Z,53.14
2018-04-06T01:33:25.253Z,52.60
2018-04-06T01:35:53.222Z,52.78
2018-04-06T01:38:21.004Z,53.18
2018-04-06T01:40:48.956Z,52.99
2018-04-06T01:43:16.661Z,52.80
2018-04-06T01:45:44.484Z,53.05
2018-04-06T01:48:12.194Z,53.29
2018-04-06T01:50:40.014Z,53.57
2018-04-06T01:53:07.675Z,53.76
2018-04-06T01:55:35.541Z,53.73
2018-04-06T01:58:03.308Z,53.52
2018-04-06T02:00:31.175Z,53.38
2018-04-06T02:02:58.853Z,53.44
2018-04-06T02:05:26.605Z,53.42
2018-04-06T02:07:54.363Z,53.38
2018-04-06T02:10:22.236Z,53.21
2018-04-06T02:12:49.997Z,53.18
2018-04-06T02:15:17.769Z,53.19
2018-04-06T02:17:45.626Z,53.47
2018-04-06T02:20:13.391Z,53.73
2018-04-06T02:22:41.258Z,53.83
2018-04-06T02:25:08.927Z,54.13
2018-04-06T02:27:36.788Z,54.30
2018-04-06T02:30:04.655Z,53.96
2018-04-06T02:32:32.413Z,53.56
2018-04-06T02:35:00.191Z,54.05
2018-04-06T02:37:28.051Z,54.59
2018-04-06T02:39:55.826Z,54.42
2018-04-06T02:42:23.567Z,54.06
2018-04-06T02:44:51.346Z,54.57
2018-04-06T02:47:19.107Z,54.73
2018-04-06T02:49:46.879Z,54.92
2018-04-06T02:52:15.558Z,54.90
2018-04-06T02:54:43.227Z,55.38
2018-04-06T02:57:10.987Z,55.26
2018-04-06T02:59:38.717Z,55.43
2018-04-06T03:02:06.466Z,55.60
2018-04-06T03:04:34.279Z,55.31
2018-04-06T03:07:02.095Z,55.51
2018-04-06T03:09:29.863Z,55.99
2018-04-06T03:11:57.570Z,56.28
2018-04-06T03:14:25.343Z,56.15
2018-04-06T03:16:53.305Z,56.25
2018-04-06T03:19:21.084Z,56.41
2018-04-06T03:21:48.942Z,56.53
2018-04-06T03:24:16.714Z,56.32
2018-04-06T03:26:44.567Z,56.19
2018-04-06T03:29:12.225Z,56.06
2018-04-06T03:31:39.994Z,56.18
2018-04-06T03:34:07.667Z,55.75
2018-04-06T03:36:35.492Z,55.72
2018-04-06T03:39:03.389Z,55.70
2018-04-06T03:41:31.255Z,56.05
2018-04-06T03:43:58.985Z,55.99
2018-04-06T03:46:26.648Z,56.48
2018-04-06T03:48:54.455Z,56.90
2018-04-06T03:51:22.416Z,56.76
2018-04-06T03:53:50.249Z,56.84
2018-04-06T03:56:18.048Z,56.65
2018-04-06T03:58:45.814Z,56.54
2018-04-06T04:01:13.679Z,56.65
2018-04-06T04:03:41.446Z,56.86
2018-04-06T04:06:09.310Z,56.33
2018-04-06T04:08:36.979Z,56.23
2018-04-06T04:11:04.737Z,56.12
2018-04-06T04:13:32.509Z,56.38
2018-04-06T04:16:00.328Z,56.43
2018-04-06T04:18:28.146Z,56.73
2018-04-06T04:20:55.853Z,56.67
2018-04-06T04:23:23.764Z,56.72
2018-04-06T04:25:51.490Z,56.64
2018-04-06T04:28:19.293Z,56.38
2018-04-06T04:30:46.955Z,55.96
2018-04-06T04:33:14.683Z,56.21
2018-04-06T04:35:42.484Z,56.66
2018-04-06T04:38:10.292Z,56.81
2018-04-06T04:40:38.118Z,56.98
2018-04-06T04:43:05.923Z,56.72
2018-04-06T04:45:33.643Z,56.50
2018-04-06T04:48:01.463Z,56.61
2018-04-06T04:50:29.280Z,56.68
2018-04-06T04:52:57.141Z,56.84
2018-04-06T04:55:24.908Z,57.41
2018-04-06T04:57:52.772Z,57.37
2018-04-06T05:00:20.493Z,58.05
2018-04-06T05:02:48.302Z,58.75
2018-04-06T05:05:16.121Z,58.16
2018-04-06T05:07:43.936Z,57.95
2018-04-06T05:10:11.753Z,57.54
2018-04-06T05:12:39.564Z,56.60
2018-04-06T05:15:07.390Z,56.53
2018-04-06T05:17:35.223Z,56.57
2018-04-06T05:20:03.165Z,56.31
2018-04-06T05:22:30.928Z,57.35
2018-04-06T05:24:58.796Z,57.64
2018-04-06T05:27:26.569Z,57.88
2018-04-06T05:29:54.324Z,57.89
2018-04-06T05:32:22.070Z,57.74
2018-04-06T05:34:49.955Z,57.46
2018-04-06T05:37:17.925Z,57.06
2018-04-06T05:39:45.808Z,56.72
2018-04-06T05:42:13.538Z,56.22
2018-04-06T05:44:41.284Z,56.02
2018-04-06T05:47:09.146Z,54.87
2018-04-06T05:49:37.707Z,55.23
2018-04-06T05:52:05.945Z,55.33
2018-04-06T05:54:33.711Z,55.43
2018-04-06T05:57:01.579Z,55.44
2018-04-06T05:59:29.237Z,55.63
2018-04-06T06:01:57.105Z,56.22
2018-04-06T06:04:24.839Z,56.25
2018-04-06T06:06:52.575Z,57.63
2018-04-06T06:09:20.187Z,57.34
2018-04-06T06:11:48.061Z,56.68
2018-04-06T06:14:16.546Z,55.57
2018-04-06T06:16:44.304Z,54.94
2018-04-06T06:19:12.077Z,55.27
2018-04-06T06:21:39.870Z,55.30
2018-04-06T06:24:07.702Z,53.99
2018-04-06T06:26:35.369Z,54.39
2018-04-06T06:29:03.261Z,53.85
2018-04-06T06:31:31.199Z,53.28
2018-04-06T06:33:58.965Z,53.35
2018-04-06T06:36:26.824Z,55.08
2018-04-06T06:38:54.597Z,55.69
2018-04-06T06:41:22.248Z,55.06
2018-04-06T06:43:50.022Z,54.32
2018-04-06T06:46:17.743Z,54.76
2018-04-06T06:48:45.451Z,53.02
2018-04-06T06:51:13.225Z,53.70
2018-04-06T06:53:41.085Z,53.86
2018-04-06T06:56:08.742Z,55.26
2018-04-06T06:58:36.411Z,56.22
2018-04-06T07:01:04.168Z,55.70
2018-04-06T07:03:31.937Z,56.20
2018-04-06T07:05:59.594Z,56.50
2018-04-06T07:08:27.462Z,55.73
2018-04-06T07:10:55.230Z,53.29
2018-04-06T07:13:23.092Z,56.80
2018-04-06T07:15:50.803Z,55.53
2018-04-06T07:18:18.622Z,56.27
2018-04-06T07:20:46.962Z,55.59
2018-04-06T07:23:14.767Z,56.27
2018-04-06T07:25:42.484Z,53.58
2018-04-06T07:28:10.293Z,54.59
2018-04-06T07:30:38.089Z,53.56
2018-04-06T07:33:05.923Z,53.55
2018-04-06T07:35:33.839Z,54.81
2018-04-06T07:38:01.659Z,53.45
2018-04-06T07:40:29.452Z,53.43
2018-04-06T07:42:57.295Z,53.02
2018-04-06T07:45:25.064Z,52.83
2018-04-06T07:47:53.024Z,51.73
2018-04-06T07:50:20.830Z,50.88
2018-04-06T07:52:48.660Z,51.63
2018-04-06T07:55:16.363Z,51.79
2018-04-06T07:57:44.290Z,51.24
2018-04-06T08:00:12.020Z,49.30
2018-04-06T08:02:40.937Z,49.38
2018-04-06T08:05:08.710Z,49.66
2018-04-06T08:07:36.505Z,51.19
2018-04-06T08:10:04.338Z,48.43
2018-04-06T08:12:32.426Z,47.88
2018-04-06T08:15:00.346Z,50.00
2018-04-06T08:17:28.379Z,49.03
2018-04-06T08:19:56.218Z,48.74
2018-04-06T08:22:24.290Z,48.98
2018-04-06T08:24:52.012Z,50.74
2018-04-06T08:27:20.693Z,49.69
2018-04-06T08:29:48.568Z,46.82
2018-04-06T08:32:16.470Z,49.63
2018-04-06T08:34:44.441Z,48.60
2018-04-06T08:37:12.271Z,46.81
2018-04-06T08:39:40.176Z,48.50
2018-04-06T08:42:08.057Z,48.80
2018-04-06T08:44:35.702Z,48.55
2018-04-06T08:47:03.571Z,48.29
2018-04-06T08:49:31.289Z,48.21
2018-04-06T08:51:59.098Z,47.81
2018-04-06T08:54:26.760Z,47.43
2018-04-06T08:56:54.626Z,46.31
2018-04-06T08:59:22.437Z,47.10
2018-04-06T09:01:50.402Z,48.39
2018-04-06T09:04:18.559Z,48.54
2018-04-06T09:06:46.407Z,45.88
2018-04-06T09:09:14.682Z,47.07
2018-04-06T09:11:43.365Z,44.48
2018-04-06T09:14:11.139Z,45.65
2018-04-06T09:16:39.098Z,43.99
2018-04-06T09:19:06.909Z,44.65
2018-04-06T09:21:34.728Z,44.89
2018-04-06T09:24:02.800Z,45.51
2018-04-06T09:26:30.509Z,42.73
2018-04-06T09:28:59.051Z,44.37
2018-04-06T09:31:28.190Z,43.55
2018-04-06T09:33:56.111Z,44.90
2018-04-06T09:36:23.876Z,42.98
2018-04-06T09:38:51.638Z,42.58
2018-04-06T09:41:19.507Z,42.42
2018-04-06T09:43:47.476Z,40.85
2018-04-06T09:46:15.285Z,42.30
2018-04-06T09:48:43.208Z,40.00
2018-04-06T09:51:11.081Z,40.70
2018-04-06T09:53:38.939Z,41.00
2018-04-06T09:56:06.801Z,41.75
2018-04-06T09:58:34.521Z,43.32
2018-04-06T10:01:02.932Z,38.81
2018-04-06T10:03:30.721Z,39.22
2018-04-06T10:05:58.372Z,39.98
2018-04-06T10:08:26.151Z,38.54
2018-04-06T10:10:53.964Z,40.01
2018-04-06T10:13:21.775Z,40.67
2018-04-06T10:15:49.427Z,39.54
2018-04-06T10:18:17.252Z,39.25
2018-04-06T10:20:45.069Z,40.55
2018-04-06T10:23:12.834Z,37.58
2018-04-06T10:25:40.609Z,37.60
2018-04-06T10:28:08.615Z,38.37
2018-04-06T10:30:36.333Z,36.61
2018-04-06T10:33:04.101Z,36.72
2018-04-06T10:35:31.860Z,37.74
2018-04-06T10:37:59.522Z,39.76
2018-04-06T10:40:27.811Z,38.71
2018-04-06T10:42:55.619Z,39.81
2018-04-06T10:45:23.428Z,38.56
2018-04-06T10:47:51.145Z,38.08
2018-04-06T10:50:18.958Z,38.54
2018-04-06T10:52:46.826Z,40.05
2018-04-06T10:55:14.554Z,39.03
2018-04-06T10:57:42.252Z,36.84
2018-04-06T11:00:09.991Z,37.97
2018-04-06T11:02:37.783Z,36.61
2018-04-06T11:05:05.546Z,38.69
2018-04-06T11:07:33.309Z,37.81
2018-04-06T11:10:01.000Z,37.31
2018-04-06T11:12:28.740Z,35.72
2018-04-06T11:14:56.546Z,36.31
2018-04-06T11:17:24.365Z,37.18
2018-04-06T11:19:52.229Z,38.42
2018-04-06T11:22:20.098Z,35.35
2018-04-06T11:24:48.331Z,36.69
2018-04-06T11:27:16.032Z,35.76
2018-04-06T11:29:43.805Z,35.52
2018-04-06T11:32:11.610Z,38.09
2018-04-06T11:34:39.436Z,36.33
2018-04-06T11:37:07.097Z,35.90
2018-04-06T11:39:34.964Z,36.75
2018-04-06T11:42:02.812Z,34.13
2018-04-06T11:44:30.603Z,35.42
2018-04-06T11:46:58.318Z,35.37
2018-04-06T11:49:26.079Z,34.08
2018-04-06T11:51:53.890Z,34.41
2018-04-06T11:54:21.756Z,33.71
2018-04-06T11:56:49.423Z,33.55
2018-04-06T11:59:17.284Z,35.44
2018-04-06T12:01:45.051Z,33.92
2018-04-06T12:04:12.999Z,32.91
2018-04-06T12:06:40.679Z,34.41
2018-04-06T12:09:08.450Z,34.17
2018-04-06T12:11:36.190Z,33.54
2018-04-06T12:14:03.987Z,34.19
2018-04-06T12:16:31.634Z,32.63
2018-04-06T12:18:59.402Z,32.13
2018-04-06T12:21:27.179Z,33.27
2018-04-06T12:23:55.034Z,32.36
2018-04-06T12:26:22.695Z,31.62
2018-04-06T12:28:50.475Z,33.18
2018-04-06T12:31:18.120Z,32.06
2018-04-06T12:33:46.097Z,32.34
2018-04-06T12:36:13.955Z,30.87
2018-04-06T12:38:41.823Z,31.15
2018-04-06T12:41:09.483Z,32.33
2018-04-06T12:43:37.354Z,31.70
2018-04-06T12:46:05.085Z,30.71
2018-04-06T12:48:32.789Z,31.01
2018-04-06T12:51:00.498Z,32.44
2018-04-06T12:53:28.309Z,32.25
2018-04-06T12:55:56.094Z,31.06
2018-04-06T12:58:23.937Z,32.17
2018-04-06T13:00:51.812Z,30.58
2018-04-06T13:03:19.569Z,31.07
2018-04-06T13:05:47.381Z,31.18
2018-04-06T13:08:15.201Z,32.44
2018-04-06T13:10:43.025Z,31.40
2018-04-06T13:13:10.865Z,30.46
2018-04-06T13:15:38.699Z,30.55
2018-04-06T13:18:06.417Z,31.25
2018-04-06T13:20:34.230Z,29.93
2018-04-06T13:23:01.976Z,30.48
2018-04-06T13:25:29.760Z,30.29
2018-04-06T13:27:57.483Z,29.83
2018-04-06T13:30:25.390Z,29.14
2018-04-06T13:32:53.095Z,30.10
2018-04-06T13:35:20.916Z,29.74
2018-04-06T13:37:48.648Z,29.06
2018-04-06T13:40:16.449Z,31.74
2018-04-06T13:42:44.214Z,30.50
2018-04-06T13:45:11.864Z,29.65
2018-04-06T13:47:39.638Z,28.84
2018-04-06T13:50:07.355Z,29.60
2018-04-06T13:52:35.166Z,30.06
2018-04-06T13:55:03.063Z,30.26
2018-04-06T13:57:31.010Z,27.89
2018-04-06T13:59:58.821Z,29.15
2018-04-06T14:02:26.636Z,29.91
2018-04-06T14:04:54.608Z,28.91
2018-04-06T14:07:22.367Z,28.54
2018-04-06T14:09:50.264Z,29.73
2018-04-06T14:12:18.100Z,28.37
2018-04-06T14:14:45.871Z,30.16
2018-04-06T14:17:13.611Z,29.99
2018-04-06T14:19:41.411Z,29.61
2018-04-06T14:22:09.119Z,30.63
2018-04-06T14:24:36.892Z,29.12
2018-04-06T14:27:04.690Z,28.25
2018-04-06T14:29:32.544Z,28.97
2018-04-06T14:32:00.259Z,29.06
2018-04-06T14:34:28.084Z,30.74
2018-04-06T14:36:55.847Z,30.06
2018-04-06T14:39:23.716Z,29.07
2018-04-06T14:41:51.473Z,30.49
2018-04-06T14:44:19.321Z,29.80
2018-04-06T14:46:47.212Z,28.95
2018-04-06T14:49:15.080Z,30.45
2018-04-06T14:51:42.744Z,30.17
2018-04-06T14:54:10.400Z,30.97
2018-04-06T14:56:38.251Z,30.45
2018-04-06T14:59:06.041Z,30.59
2018-04-06T15:01:33.910Z,28.58
2018-04-06T15:04:01.673Z,29.19
2018-04-06T15:06:29.390Z,29.24
2018-04-06T15:08:57.195Z,29.06
2018-04-06T15:11:25.062Z,29.93
2018-04-06T15:13:52.914Z,30.77
2018-04-06T15:16:20.757Z,29.30
2018-04-06T15:18:48.561Z,30.60
2018-04-06T15:21:16.428Z,29.34
2018-04-06T15:23:44.191Z,29.70
2018-04-06T15:26:11.965Z,30.38
2018-04-06T15:28:39.851Z,30.05
2018-04-06T15:31:07.612Z,29.38
2018-04-06T15:33:35.454Z,29.31
2018-04-06T15:36:04.792Z,29.42
2018-04-06T15:38:32.513Z,29.49
2018-04-06T15:41:00.387Z,30.86
2018-04-06T15:43:28.150Z,29.49
2018-04-06T15:45:56.078Z,32.55
2018-04-06T15:48:23.883Z,29.53
2018-04-06T15:50:51.649Z,29.65
2018-04-06T15:53:19.377Z,30.42
2018-04-06T15:55:53.073Z,31.63
2018-04-06T15:58:20.880Z,30.53
2018-04-06T16:00:48.646Z,31.40
2018-04-06T16:03:16.309Z,31.12
2018-04-06T16:05:44.174Z,31.57
2018-04-06T16:08:12.041Z,31.10
2018-04-06T16:10:39.769Z,31.13
2018-04-06T16:13:07.571Z,30.70
2018-04-06T16:15:35.237Z,31.67
2018-04-06T16:18:03.099Z,33.34
2018-04-06T16:20:30.863Z,31.33
2018-04-06T16:22:58.627Z,31.62
2018-04-06T16:25:26.339Z,32.09
2018-04-06T16:27:54.176Z,31.88
2018-04-06T16:30:21.927Z,31.09
2018-04-06T16:32:49.786Z,31.97
2018-04-06T16:35:17.627Z,32.05
2018-04-06T16:37:45.317Z,32.15
2018-04-06T16:40:13.043Z,32.75
2018-04-06T16:42:40.948Z,32.60
2018-04-06T16:45:08.565Z,32.80
2018-04-06T16:47:36.377Z,32.38
2018-04-06T16:50:04.078Z,32.23
2018-04-06T16:52:31.808Z,32.85
2018-04-06T16:54:59.573Z,32.67
2018-04-06T16:57:27.439Z,33.32
2018-04-06T16:59:55.197Z,32.55
2018-04-06T17:02:23.101Z,33.49
2018-04-06T17:04:50.728Z,33.12
2018-04-06T17:07:18.612Z,33.85
2018-04-06T17:09:46.458Z,33.78
2018-04-06T17:12:14.326Z,33.77
2018-04-06T17:14:42.202Z,32.87
2018-04-06T17:17:10.059Z,33.78
2018-04-06T17:19:37.928Z,34.16
2018-04-06T17:22:05.795Z,34.41
2018-04-06T17:24:33.559Z,34.63
2018-04-06T17:27:01.439Z,34.78
2018-04-06T17:29:29.338Z,33.99
2018-04-06T17:31:57.262Z,33.79
2018-04-06T17:34:24.933Z,33.92
2018-04-06T17:36:52.740Z,33.96
2018-04-06T17:39:20.453Z,34.83
2018-04-06T17:41:48.311Z,35.38
2018-04-06T17:44:16.293Z,35.62
2018-04-06T17:46:44.108Z,35.09
2018-04-06T17:49:11.957Z,35.59
2018-04-06T17:51:39.787Z,35.14
2018-04-06T17:54:07.654Z,35.73
2018-04-06T17:56:35.524Z,35.98
2018-04-06T17:59:03.388Z,35.93
2018-04-06T18:01:31.254Z,36.22
2018-04-06T18:03:59.122Z,35.62
2018-04-06T18:06:26.988Z,35.67
2018-04-06T18:08:54.855Z,35.74
2018-04-06T18:11:22.601Z,35.36
2018-04-06T18:13:50.487Z,35.81
2018-04-06T18:16:18.306Z,36.03
2018-04-06T18:18:46.220Z,35.94
2018-04-06T18:21:13.937Z,36.58
2018-04-06T18:23:41.746Z,36.56
2018-04-06T18:26:09.517Z,36.73
2018-04-06T18:28:37.381Z,36.27
2018-04-06T18:31:05.250Z,36.49
2018-04-06T18:33:33.069Z,36.06
2018-04-06T18:36:00.878Z,36.36
2018-04-06T18:38:28.745Z,36.41
2018-04-06T18:40:56.517Z,36.32
2018-04-06T18:43:24.336Z,36.16
2018-04-06T18:45:52.246Z,36.30
2018-04-06T18:48:20.220Z,36.04
2018-04-06T18:50:48.083Z,36.11
2018-04-06T18:53:15.898Z,36.21
2018-04-06T18:55:43.710Z,36.58
2018-04-06T18:58:11.578Z,36.35
2018-04-06T19:00:39.354Z,36.21
2018-04-06T19:03:07.209Z,35.85
2018-04-06T19:05:35.179Z,36.31
2018-04-06T19:08:03.045Z,35.91
2018-04-06T19:10:30.945Z,35.83
2018-04-06T19:12:58.786Z,35.84
2018-04-06T19:15:26.646Z,36.46
2018-04-06T19:17:54.512Z,36.43
2018-04-06T19:20:22.379Z,36.48
2018-04-06T19:22:50.212Z,36.52
2018-04-06T19:25:18.011Z,36.57
2018-04-06T19:27:45.883Z,36.67
2018-04-06T19:30:13.847Z,36.83
2018-04-06T19:32:41.714Z,37.03
2018-04-06T19:35:09.581Z,36.73
2018-04-06T19:37:37.448Z,37.08
2018-04-06T19:40:05.166Z,37.48
2018-04-06T19:42:33.040Z,38.06
2018-04-06T19:45:00.946Z,38.34
2018-04-06T19:47:28.717Z,38.02
2018-04-06T19:49:56.557Z,37.57
2018-04-06T19:52:24.398Z,37.66
2018-04-06T19:54:52.217Z,37.41
2018-04-06T19:57:20.053Z,37.60
2018-04-06T19:59:47.899Z,37.50
2018-04-06T20:02:15.601Z,38.03
2018-04-06T20:04:43.471Z,38.10
2018-04-06T20:07:11.339Z,38.39
2018-04-06T20:09:39.212Z,39.00
2018-04-06T20:12:07.072Z,39.38
2018-04-06T20:14:34.969Z,40.06
2018-04-06T20:17:02.809Z,40.75
2018-04-06T20:19:30.672Z,40.97
2018-04-06T20:21:58.539Z,41.09
2018-04-06T20:24:26.516Z,41.23
2018-04-06T20:26:54.376Z,41.69
2018-04-06T20:29:22.164Z,41.51
2018-04-06T20:31:49.962Z,42.16
2018-04-06T20:34:17.701Z,41.69
2018-04-06T20:36:45.534Z,42.38
2018-04-06T20:39:13.408Z,42.17
2018-04-06T20:41:41.310Z,42.31
2018-04-06T20:44:09.040Z,42.44
2018-04-06T20:46:37.006Z,42.36
2018-04-06T20:49:04.905Z,42.43
2018-04-06T20:51:32.736Z,42.23
2018-04-06T20:54:00.603Z,41.71
2018-04-06T20:56:28.368Z,41.25
2018-04-06T20:58:56.341Z,41.29
2018-04-06T21:01:24.084Z,41.11
2018-04-06T21:03:52.121Z,40.64
2018-04-06T21:06:19.937Z,41.25
2018-04-06T21:08:47.663Z,41.88
2018-04-06T21:11:15.425Z,41.96
2018-04-06T21:13:43.231Z,41.72
2018-04-06T21:16:11.098Z,41.85
2018-04-06T21:18:38.965Z,42.20
2018-04-06T21:21:06.831Z,42.24
2018-04-06T21:23:34.800Z,42.54
2018-04-06T21:26:02.667Z,42.07
2018-04-06T21:28:30.436Z,41.89
2018-04-06T21:30:58.267Z,41.45
2018-04-06T21:33:26.164Z,40.66
2018-04-06T21:35:54.135Z,39.96
2018-04-06T21:38:21.954Z,39.20
2018-04-06T21:40:49.766Z,39.05
2018-04-06T21:43:17.538Z,38.83
2018-04-06T21:45:45.505Z,38.77
2018-04-06T21:48:13.321Z,38.54
2018-04-06T21:50:41.194Z,37.84
2018-04-06T21:53:08.997Z,38.10
2018-04-06T21:55:36.887Z,38.06
2018-04-06T21:58:04.732Z,37.40
2018-04-06T22:00:32.493Z,37.76
2018-04-06T22:03:00.326Z,38.23
2018-04-06T22:05:28.226Z,37.42
2018-04-06T22:07:55.996Z,37.33
2018-04-06T22:10:23.964Z,37.87
2018-04-06T22:12:51.728Z,37.30
2018-04-06T22:15:19.492Z,37.65
2018-04-06T22:17:47.322Z,37.62
2018-04-06T22:20:15.126Z,37.54
2018-04-06T22:22:42.887Z,38.25
2018-04-06T22:25:10.719Z,37.74
2018-04-06T22:27:38.590Z,37.55
2018-04-06T22:30:06.452Z,37.92
2018-04-06T22:32:34.458Z,37.77
2018-04-06T22:35:02.211Z,38.18
2018-04-06T22:37:30.059Z,37.60
2018-04-06T22:39:57.956Z,37.85
2018-04-06T22:42:25.916Z,37.61
2018-04-06T22:44:53.692Z,37.83
2018-04-06T22:47:21.556Z,37.06
2018-04-06T22:49:49.323Z,37.13
2018-04-06T22:52:17.280Z,37.54
2018-04-06T22:54:45.055Z,37.45
2018-04-06T22:57:12.922Z,37.59
2018-04-06T22:59:40.681Z,37.87
2018-04-06T23:02:08.518Z,37.67
2018-04-06T23:04:36.506Z,37.76
2018-04-06T23:07:04.348Z,37.90
2018-04-06T23:09:32.290Z,37.97
2018-04-06T23:12:00.207Z,38.16
2018-04-06T23:14:28.091Z,38.86
2018-04-06T23:16:55.856Z,38.69
2018-04-06T23:19:23.722Z,38.85
2018-04-06T23:21:51.451Z,38.63
2018-04-06T23:24:19.252Z,38.51
2018-04-06T23:26:46.922Z,38.45
2018-04-06T23:29:15.809Z,38.66
2018-04-06T23:31:43.774Z,38.65
2018-04-06T23:34:11.640Z,39.09
2018-04-06T23:36:39.409Z,38.77
2018-04-06T23:39:07.292Z,38.92
2018-04-06T23:41:35.139Z,38.94
2018-04-06T23:44:02.952Z,38.71
2018-04-06T23:46:30.771Z,38.76
2018-04-06T23:48:58.846Z,38.91
2018-04-06T23:51:26.640Z,38.90
2018-04-06T23:53:54.473Z,38.90
2018-04-06T23:56:22.340Z,39.05
2018-04-06T23:58:50.151Z,39.39
